sensor_id;sensor_type;location;lat;lon;timestamp;pressure;altitude;pressure_sealevel;temperature;humidity
53522;BME280;39398;48.382;9.802;2023-01-31T00:03:07;94487.63;;;1.61;100.00
53522;BME280;39398;48.382;9.802;2023-01-31T00:08:09;94492.00;;;1.61;100.00
53522;BME280;39398;48.382;9.802;2023-01-31T00:13:12;94493.47;;;1.43;100.00
53522;BME280;39398;48.382;9.802;2023-01-31T00:18:13;94500.84;;;1.70;100.00
53522;BME280;39398;48.382;9.802;2023-01-31T00:23:15;94492.00;;;1.61;100.00
53522;BME280;39398;48.382;9.802;2023-01-31T00:28:18;94497.13;;;1.40;100.00
53522;BME280;39398;48.382;9.802;2023-01-31T00:33:20;94486.81;;;1.50;100.00
53522;BME280;39398;48.382;9.802;2023-01-31T00:38:21;94485.59;;;1.10;100.00
53522;BME280;39398;48.382;9.802;2023-01-31T00:43:25;94491.50;;;1.24;100.00
53522;BME280;39398;48.382;9.802;2023-01-31T00:48:27;94487.97;;;1.25;100.00
53522;BME280;39398;48.382;9.802;2023-01-31T00:53:28;94491.41;;;1.57;100.00
53522;BME280;39398;48.382;9.802;2023-01-31T00:58:31;94496.31;;;1.39;100.00
53522;BME280;39398;48.382;9.802;2023-01-31T01:03:33;94494.31;;;1.32;100.00
53522;BME280;39398;48.382;9.802;2023-01-31T01:08:36;94491.97;;;1.17;100.00
53522;BME280;39398;48.382;9.802;2023-01-31T01:13:40;94491.53;;;1.01;100.00
53522;BME280;39398;48.382;9.802;2023-01-31T01:18:42;94492.13;;;0.93;100.00
53522;BME280;39398;48.382;9.802;2023-01-31T01:23:44;94488.47;;;0.85;100.00
53522;BME280;39398;48.382;9.802;2023-01-31T01:28:48;94489.41;;;0.73;100.00
53522;BME280;39398;48.382;9.802;2023-01-31T01:33:50;94492.34;;;1.02;100.00
53522;BME280;39398;48.382;9.802;2023-01-31T01:38:52;94490.84;;;0.99;100.00
53522;BME280;39398;48.382;9.802;2023-01-31T01:43:56;94493.56;;;0.75;100.00
53522;BME280;39398;48.382;9.802;2023-01-31T01:49:03;94485.25;;;0.92;100.00
53522;BME280;39398;48.382;9.802;2023-01-31T01:54:10;94490.84;;;0.65;100.00
53522;BME280;39398;48.382;9.802;2023-01-31T01:59:15;94503.34;;;0.83;100.00
53522;BME280;39398;48.382;9.802;2023-01-31T02:04:24;94500.63;;;0.62;100.00
53522;BME280;39398;48.382;9.802;2023-01-31T02:09:35;94505.59;;;0.65;100.00
53522;BME280;39398;48.382;9.802;2023-01-31T02:14:40;94503.47;;;0.59;100.00
53522;BME280;39398;48.382;9.802;2023-01-31T02:19:51;94503.09;;;0.52;100.00
53522;BME280;39398;48.382;9.802;2023-01-31T02:25:45;94514.94;;;0.67;100.00
53522;BME280;39398;48.382;9.802;2023-01-31T02:31:16;94505.09;;;0.26;100.00
53522;BME280;39398;48.382;9.802;2023-01-31T02:36:29;94509.41;;;0.14;100.00
53522;BME280;39398;48.382;9.802;2023-01-31T02:41:37;94494.34;;;0.31;100.00
53522;BME280;39398;48.382;9.802;2023-01-31T02:46:41;94496.94;;;0.31;100.00
53522;BME280;39398;48.382;9.802;2023-01-31T02:51:48;94492.22;;;0.36;100.00
53522;BME280;39398;48.382;9.802;2023-01-31T02:56:52;94500.75;;;0.49;100.00
53522;BME280;39398;48.382;9.802;2023-01-31T03:01:56;94506.00;;;0.14;100.00
53522;BME280;39398;48.382;9.802;2023-01-31T03:07:03;94521.34;;;0.28;100.00
53522;BME280;39398;48.382;9.802;2023-01-31T03:12:17;94522.94;;;0.42;100.00
53522;BME280;39398;48.382;9.802;2023-01-31T03:17:26;94532.75;;;0.50;100.00
53522;BME280;39398;48.382;9.802;2023-01-31T03:22:36;94529.78;;;0.43;100.00
53522;BME280;39398;48.382;9.802;2023-01-31T03:27:41;94539.31;;;0.31;100.00
53522;BME280;39398;48.382;9.802;2023-01-31T03:32:49;94540.28;;;0.41;100.00
53522;BME280;39398;48.382;9.802;2023-01-31T03:37:59;94528.59;;;0.47;100.00
53522;BME280;39398;48.382;9.802;2023-01-31T03:43:10;94539.28;;;0.78;100.00
53522;BME280;39398;48.382;9.802;2023-01-31T03:48:14;94534.19;;;0.65;100.00
53522;BME280;39398;48.382;9.802;2023-01-31T03:53:21;94547.00;;;0.44;100.00
53522;BME280;39398;48.382;9.802;2023-01-31T03:58:27;94538.91;;;0.71;100.00
53522;BME280;39398;48.382;9.802;2023-01-31T04:03:33;94541.00;;;0.43;100.00
53522;BME280;39398;48.382;9.802;2023-01-31T04:08:39;94535.56;;;0.35;100.00
53522;BME280;39398;48.382;9.802;2023-01-31T04:13:41;94546.03;;;0.22;100.00
53522;BME280;39398;48.382;9.802;2023-01-31T04:18:43;94556.66;;;0.31;100.00
53522;BME280;39398;48.382;9.802;2023-01-31T04:23:46;94562.91;;;0.28;100.00
53522;BME280;39398;48.382;9.802;2023-01-31T04:28:48;94570.53;;;0.07;100.00
53522;BME280;39398;48.382;9.802;2023-01-31T04:33:50;94579.78;;;0.22;100.00
53522;BME280;39398;48.382;9.802;2023-01-31T04:38:53;94582.25;;;0.24;100.00
53522;BME280;39398;48.382;9.802;2023-01-31T04:43:54;94591.81;;;0.23;100.00
53522;BME280;39398;48.382;9.802;2023-01-31T04:48:56;94595.91;;;0.15;100.00
53522;BME280;39398;48.382;9.802;2023-01-31T04:53:59;94602.16;;;0.12;100.00
53522;BME280;39398;48.382;9.802;2023-01-31T04:59:01;94590.53;;;-0.06;100.00
53522;BME280;39398;48.382;9.802;2023-01-31T05:04:03;94596.50;;;0.07;100.00
53522;BME280;39398;48.382;9.802;2023-01-31T05:09:06;94576.19;;;0.12;100.00
53522;BME280;39398;48.382;9.802;2023-01-31T05:14:08;94591.91;;;0.11;100.00
53522;BME280;39398;48.382;9.802;2023-01-31T05:19:09;94613.78;;;-0.05;100.00
53522;BME280;39398;48.382;9.802;2023-01-31T05:24:12;94606.50;;;0.01;100.00
53522;BME280;39398;48.382;9.802;2023-01-31T05:29:14;94599.34;;;-0.33;100.00
53522;BME280;39398;48.382;9.802;2023-01-31T05:34:16;94594.44;;;-0.01;100.00
53522;BME280;39398;48.382;9.802;2023-01-31T05:39:19;94596.31;;;-0.27;100.00
53522;BME280;39398;48.382;9.802;2023-01-31T05:44:21;94594.28;;;-0.10;100.00
53522;BME280;39398;48.382;9.802;2023-01-31T05:49:23;94606.91;;;-0.30;100.00
53522;BME280;39398;48.382;9.802;2023-01-31T05:54:26;94616.66;;;0.04;100.00
53522;BME280;39398;48.382;9.802;2023-01-31T05:59:28;94607.94;;;-0.32;100.00
53522;BME280;39398;48.382;9.802;2023-01-31T06:04:29;94610.94;;;-0.26;100.00
53522;BME280;39398;48.382;9.802;2023-01-31T06:09:32;94617.06;;;-0.27;100.00
53522;BME280;39398;48.382;9.802;2023-01-31T06:14:34;94622.00;;;-0.35;100.00
53522;BME280;39398;48.382;9.802;2023-01-31T06:19:35;94613.88;;;-0.30;100.00
53522;BME280;39398;48.382;9.802;2023-01-31T06:24:38;94615.69;;;-0.19;100.00
53522;BME280;39398;48.382;9.802;2023-01-31T06:29:40;94620.34;;;-0.12;100.00
53522;BME280;39398;48.382;9.802;2023-01-31T06:34:41;94609.06;;;-0.24;100.00
53522;BME280;39398;48.382;9.802;2023-01-31T06:39:44;94613.47;;;-0.37;100.00
53522;BME280;39398;48.382;9.802;2023-01-31T06:44:46;94622.03;;;-0.24;100.00
53522;BME280;39398;48.382;9.802;2023-01-31T06:49:47;94630.59;;;-0.10;100.00
53522;BME280;39398;48.382;9.802;2023-01-31T06:54:50;94638.56;;;-0.01;100.00
53522;BME280;39398;48.382;9.802;2023-01-31T06:59:52;94639.34;;;-0.11;100.00
53522;BME280;39398;48.382;9.802;2023-01-31T07:04:54;94642.75;;;-0.35;100.00
53522;BME280;39398;48.382;9.802;2023-01-31T07:09:57;94639.56;;;-0.14;100.00
53522;BME280;39398;48.382;9.802;2023-01-31T07:14:58;94630.16;;;-0.04;100.00
53522;BME280;39398;48.382;9.802;2023-01-31T07:20:00;94636.06;;;-0.26;100.00
53522;BME280;39398;48.382;9.802;2023-01-31T07:25:03;94637.94;;;-0.28;100.00
53522;BME280;39398;48.382;9.802;2023-01-31T07:30:06;94624.41;;;-0.20;100.00
53522;BME280;39398;48.382;9.802;2023-01-31T07:35:08;94609.97;;;-0.12;100.00
53522;BME280;39398;48.382;9.802;2023-01-31T07:40:13;94611.97;;;-0.15;100.00
53522;BME280;39398;48.382;9.802;2023-01-31T07:45:15;94624.31;;;0.05;100.00
53522;BME280;39398;48.382;9.802;2023-01-31T07:50:23;94619.66;;;0.21;100.00
53522;BME280;39398;48.382;9.802;2023-01-31T07:55:26;94618.16;;;0.30;100.00
53522;BME280;39398;48.382;9.802;2023-01-31T08:00:28;94616.59;;;0.52;100.00
53522;BME280;39398;48.382;9.802;2023-01-31T08:05:30;94625.72;;;0.68;100.00
53522;BME280;39398;48.382;9.802;2023-01-31T08:10:35;94625.88;;;0.78;99.66
53522;BME280;39398;48.382;9.802;2023-01-31T08:15:36;94638.81;;;0.67;98.67
53522;BME280;39398;48.382;9.802;2023-01-31T08:20:38;94637.16;;;1.12;97.27
53522;BME280;39398;48.382;9.802;2023-01-31T08:25:41;94634.66;;;1.00;96.61
53522;BME280;39398;48.382;9.802;2023-01-31T08:30:43;94637.25;;;1.11;95.76
53522;BME280;39398;48.382;9.802;2023-01-31T08:35:56;94639.97;;;0.98;97.92
53522;BME280;39398;48.382;9.802;2023-01-31T08:40:59;94636.91;;;1.15;95.53
53522;BME280;39398;48.382;9.802;2023-01-31T08:46:01;94623.41;;;1.55;94.43
53522;BME280;39398;48.382;9.802;2023-01-31T08:51:04;94621.78;;;1.43;95.06
53522;BME280;39398;48.382;9.802;2023-01-31T08:56:07;94625.56;;;1.50;94.80
53522;BME280;39398;48.382;9.802;2023-01-31T09:01:11;94630.13;;;1.80;92.87
53522;BME280;39398;48.382;9.802;2023-01-31T09:06:15;94641.47;;;2.02;92.67
53522;BME280;39398;48.382;9.802;2023-01-31T09:11:18;94647.94;;;2.51;90.00
53522;BME280;39398;48.382;9.802;2023-01-31T09:16:20;94647.56;;;3.18;87.87
53522;BME280;39398;48.382;9.802;2023-01-31T09:21:22;94638.34;;;3.14;86.35
53522;BME280;39398;48.382;9.802;2023-01-31T09:26:25;94639.91;;;2.43;86.40
53522;BME280;39398;48.382;9.802;2023-01-31T09:31:27;94641.69;;;2.74;87.31
53522;BME280;39398;48.382;9.802;2023-01-31T09:36:29;94636.88;;;2.79;87.01
53522;BME280;39398;48.382;9.802;2023-01-31T09:41:35;94644.34;;;2.84;88.04
53522;BME280;39398;48.382;9.802;2023-01-31T09:46:40;94652.72;;;3.09;86.90
53522;BME280;39398;48.382;9.802;2023-01-31T09:51:42;94656.91;;;3.21;86.50
53522;BME280;39398;48.382;9.802;2023-01-31T09:56:53;94641.97;;;3.54;84.39
53522;BME280;39398;48.382;9.802;2023-01-31T10:02:01;94637.31;;;3.57;83.53
53522;BME280;39398;48.382;9.802;2023-01-31T10:07:05;94635.88;;;3.43;83.28
53522;BME280;39398;48.382;9.802;2023-01-31T10:12:16;94633.19;;;3.03;84.58
53522;BME280;39398;48.382;9.802;2023-01-31T10:17:21;94626.00;;;3.16;83.51
53522;BME280;39398;48.382;9.802;2023-01-31T10:22:32;94632.84;;;3.38;82.00
53522;BME280;39398;48.382;9.802;2023-01-31T10:27:45;94639.94;;;3.26;81.13
53522;BME280;39398;48.382;9.802;2023-01-31T10:32:50;94626.38;;;3.12;82.00
53522;BME280;39398;48.382;9.802;2023-01-31T10:37:57;94607.19;;;3.13;81.74
53522;BME280;39398;48.382;9.802;2023-01-31T10:43:07;94589.66;;;2.94;81.07
53522;BME280;39398;48.382;9.802;2023-01-31T10:48:14;94600.81;;;3.06;81.05
53522;BME280;39398;48.382;9.802;2023-01-31T10:53:38;94597.81;;;3.41;81.10
53522;BME280;39398;48.382;9.802;2023-01-31T10:58:46;94576.75;;;3.23;81.68
53522;BME280;39398;48.382;9.802;2023-01-31T11:03:49;94559.84;;;3.27;82.25
53522;BME280;39398;48.382;9.802;2023-01-31T11:08:54;94545.09;;;3.07;82.09
53522;BME280;39398;48.382;9.802;2023-01-31T11:14:00;94541.06;;;3.02;84.23
53522;BME280;39398;48.382;9.802;2023-01-31T11:19:03;94543.16;;;3.09;84.65
53522;BME280;39398;48.382;9.802;2023-01-31T11:24:15;94545.47;;;3.02;85.17
53522;BME280;39398;48.382;9.802;2023-01-31T11:29:23;94545.84;;;2.67;86.87
53522;BME280;39398;48.382;9.802;2023-01-31T11:34:26;94527.31;;;2.91;87.32
53522;BME280;39398;48.382;9.802;2023-01-31T11:39:30;94537.47;;;3.34;85.15
53522;BME280;39398;48.382;9.802;2023-01-31T11:44:33;94534.81;;;3.55;84.85
53522;BME280;39398;48.382;9.802;2023-01-31T11:49:38;94527.56;;;3.28;84.50
53522;BME280;39398;48.382;9.802;2023-01-31T11:54:45;94494.13;;;3.53;84.00
53522;BME280;39398;48.382;9.802;2023-01-31T11:59:51;94487.56;;;3.78;82.50
53522;BME280;39398;48.382;9.802;2023-01-31T12:04:53;94496.38;;;3.96;81.20
53522;BME280;39398;48.382;9.802;2023-01-31T12:09:55;94488.53;;;4.15;81.62
53522;BME280;39398;48.382;9.802;2023-01-31T12:15:01;94488.66;;;3.94;83.62
53522;BME280;39398;48.382;9.802;2023-01-31T12:20:15;94478.38;;;4.12;82.23
53522;BME280;39398;48.382;9.802;2023-01-31T12:25:42;94481.50;;;3.58;85.81
53522;BME280;39398;48.382;9.802;2023-01-31T12:31:00;94485.47;;;3.42;85.94
53522;BME280;39398;48.382;9.802;2023-01-31T12:36:25;94475.31;;;4.27;83.98
53522;BME280;39398;48.382;9.802;2023-01-31T12:41:37;94457.09;;;4.54;81.12
53522;BME280;39398;48.382;9.802;2023-01-31T12:46:47;94460.72;;;4.43;81.89
53522;BME280;39398;48.382;9.802;2023-01-31T12:52:10;94436.81;;;4.19;82.25
53522;BME280;39398;48.382;9.802;2023-01-31T12:57:24;94427.63;;;4.05;82.79
53522;BME280;39398;48.382;9.802;2023-01-31T13:02:38;94426.38;;;4.19;82.20
53522;BME280;39398;48.382;9.802;2023-01-31T13:07:45;94415.53;;;3.75;83.24
53522;BME280;39398;48.382;9.802;2023-01-31T13:12:48;94421.53;;;4.24;83.58
53522;BME280;39398;48.382;9.802;2023-01-31T13:17:54;94397.50;;;3.91;85.45
53522;BME280;39398;48.382;9.802;2023-01-31T13:23:00;94392.66;;;4.26;82.44
53522;BME280;39398;48.382;9.802;2023-01-31T13:28:08;94383.19;;;4.15;82.83
53522;BME280;39398;48.382;9.802;2023-01-31T13:33:39;94369.88;;;3.99;82.24
53522;BME280;39398;48.382;9.802;2023-01-31T13:38:43;94365.84;;;4.14;83.81
53522;BME280;39398;48.382;9.802;2023-01-31T13:43:45;94345.56;;;3.88;84.20
53522;BME280;39398;48.382;9.802;2023-01-31T13:48:51;94348.06;;;3.80;83.65
53522;BME280;39398;48.382;9.802;2023-01-31T13:53:58;94367.53;;;4.05;84.91
53522;BME280;39398;48.382;9.802;2023-01-31T13:59:05;94391.34;;;3.92;84.87
53522;BME280;39398;48.382;9.802;2023-01-31T14:04:29;94369.19;;;4.06;80.96
53522;BME280;39398;48.382;9.802;2023-01-31T14:09:32;94366.63;;;3.67;75.42
53522;BME280;39398;48.382;9.802;2023-01-31T14:14:37;94362.38;;;3.47;72.22
53522;BME280;39398;48.382;9.802;2023-01-31T14:20:00;94380.22;;;3.32;71.67
53522;BME280;39398;48.382;9.802;2023-01-31T14:25:13;94369.09;;;3.40;71.14
53522;BME280;39398;48.382;9.802;2023-01-31T14:30:25;94384.06;;;3.67;71.32
53522;BME280;39398;48.382;9.802;2023-01-31T14:35:42;94377.56;;;4.10;71.78
53522;BME280;39398;48.382;9.802;2023-01-31T14:40:56;94383.22;;;4.42;75.09
53522;BME280;39398;48.382;9.802;2023-01-31T14:46:18;94390.66;;;3.90;79.82
53522;BME280;39398;48.382;9.802;2023-01-31T14:51:29;94398.44;;;4.19;81.68
53522;BME280;39398;48.382;9.802;2023-01-31T14:56:51;94403.25;;;4.14;81.44
53522;BME280;39398;48.382;9.802;2023-01-31T15:01:54;94388.91;;;4.38;80.15
53522;BME280;39398;48.382;9.802;2023-01-31T15:06:58;94397.47;;;4.20;75.72
53522;BME280;39398;48.382;9.802;2023-01-31T15:12:00;94397.00;;;4.45;74.61
53522;BME280;39398;48.382;9.802;2023-01-31T15:17:09;94371.00;;;4.33;74.74
53522;BME280;39398;48.382;9.802;2023-01-31T15:22:37;94353.00;;;4.30;73.43
53522;BME280;39398;48.382;9.802;2023-01-31T15:27:41;94353.59;;;4.14;74.28
53522;BME280;39398;48.382;9.802;2023-01-31T15:32:48;94344.88;;;3.96;74.03
53522;BME280;39398;48.382;9.802;2023-01-31T15:37:55;94339.22;;;3.91;75.48
53522;BME280;39398;48.382;9.802;2023-01-31T15:43:14;94331.16;;;3.75;75.30
53522;BME280;39398;48.382;9.802;2023-01-31T15:48:17;94358.22;;;3.93;75.36
53522;BME280;39398;48.382;9.802;2023-01-31T15:53:22;94370.44;;;3.73;78.43
53522;BME280;39398;48.382;9.802;2023-01-31T15:58:26;94373.91;;;3.54;79.81
53522;BME280;39398;48.382;9.802;2023-01-31T16:03:30;94385.31;;;3.43;84.13
53522;BME280;39398;48.382;9.802;2023-01-31T16:08:35;94395.75;;;3.34;86.53
53522;BME280;39398;48.382;9.802;2023-01-31T16:13:38;94421.47;;;3.58;86.51
53522;BME280;39398;48.382;9.802;2023-01-31T16:18:48;94433.00;;;3.55;86.96
53522;BME280;39398;48.382;9.802;2023-01-31T16:23:58;94430.38;;;3.55;87.19
53522;BME280;39398;48.382;9.802;2023-01-31T16:29:06;94427.06;;;3.63;86.55
53522;BME280;39398;48.382;9.802;2023-01-31T16:34:19;94424.63;;;3.81;86.45
53522;BME280;39398;48.382;9.802;2023-01-31T16:39:31;94443.56;;;3.54;87.49
53522;BME280;39398;48.382;9.802;2023-01-31T16:44:35;94443.56;;;3.73;87.16
53522;BME280;39398;48.382;9.802;2023-01-31T16:49:40;94438.75;;;3.59;87.62
53522;BME280;39398;48.382;9.802;2023-01-31T16:54:44;94443.56;;;3.54;88.20
53522;BME280;39398;48.382;9.802;2023-01-31T16:59:51;94458.84;;;3.08;89.58
53522;BME280;39398;48.382;9.802;2023-01-31T17:04:55;94452.03;;;3.17;90.86
53522;BME280;39398;48.382;9.802;2023-01-31T17:10:00;94450.00;;;3.30;89.38
53522;BME280;39398;48.382;9.802;2023-01-31T17:15:11;94449.28;;;3.28;90.28
53522;BME280;39398;48.382;9.802;2023-01-31T17:20:14;94440.53;;;3.29;90.76
53522;BME280;39398;48.382;9.802;2023-01-31T17:25:19;94440.50;;;3.19;91.21
53522;BME280;39398;48.382;9.802;2023-01-31T17:30:22;94446.94;;;3.25;91.37
53522;BME280;39398;48.382;9.802;2023-01-31T17:35:26;94440.50;;;3.19;91.31
53522;BME280;39398;48.382;9.802;2023-01-31T17:40:30;94441.31;;;3.20;91.00
53522;BME280;39398;48.382;9.802;2023-01-31T17:45:32;94449.09;;;3.00;92.58
53522;BME280;39398;48.382;9.802;2023-01-31T17:50:34;94457.25;;;3.17;92.00
53522;BME280;39398;48.382;9.802;2023-01-31T17:55:37;94464.19;;;2.97;91.60
53522;BME280;39398;48.382;9.802;2023-01-31T18:00:38;94451.53;;;2.92;93.16
53522;BME280;39398;48.382;9.802;2023-01-31T18:05:40;94454.47;;;3.09;92.78
53522;BME280;39398;48.382;9.802;2023-01-31T18:11:03;94451.97;;;2.97;92.69
53522;BME280;39398;48.382;9.802;2023-01-31T18:16:06;94443.59;;;2.94;92.93
53522;BME280;39398;48.382;9.802;2023-01-31T18:21:09;94448.03;;;2.72;94.70
53522;BME280;39398;48.382;9.802;2023-01-31T18:26:12;94457.41;;;2.85;93.99
53522;BME280;39398;48.382;9.802;2023-01-31T18:31:15;94454.28;;;2.60;94.79
53522;BME280;39398;48.382;9.802;2023-01-31T18:36:18;94468.25;;;2.28;96.08
53522;BME280;39398;48.382;9.802;2023-01-31T18:41:21;94462.00;;;2.62;95.24
53522;BME280;39398;48.382;9.802;2023-01-31T18:46:23;94455.78;;;2.53;94.60
53522;BME280;39398;48.382;9.802;2023-01-31T18:51:25;94446.63;;;2.38;97.38
53522;BME280;39398;48.382;9.802;2023-01-31T18:56:28;94460.81;;;2.03;99.04
53522;BME280;39398;48.382;9.802;2023-01-31T19:01:30;94467.06;;;2.63;98.15
53522;BME280;39398;48.382;9.802;2023-01-31T19:06:33;94451.50;;;2.52;98.32
53522;BME280;39398;48.382;9.802;2023-01-31T19:11:36;94441.03;;;2.42;99.21
53522;BME280;39398;48.382;9.802;2023-01-31T19:16:39;94426.78;;;2.46;98.98
53522;BME280;39398;48.382;9.802;2023-01-31T19:21:41;94448.78;;;2.32;99.52
53522;BME280;39398;48.382;9.802;2023-01-31T19:26:45;94448.22;;;2.50;99.17
53522;BME280;39398;48.382;9.802;2023-01-31T19:31:56;94441.00;;;2.63;98.29
53522;BME280;39398;48.382;9.802;2023-01-31T19:36:57;94431.81;;;2.38;99.45
53522;BME280;39398;48.382;9.802;2023-01-31T19:42:01;94429.78;;;2.42;99.44
53522;BME280;39398;48.382;9.802;2023-01-31T19:47:03;94421.81;;;2.33;98.72
53522;BME280;39398;48.382;9.802;2023-01-31T19:52:04;94429.00;;;2.51;98.74
53522;BME280;39398;48.382;9.802;2023-01-31T19:57:07;94416.59;;;2.33;99.49
53522;BME280;39398;48.382;9.802;2023-01-31T20:02:09;94427.53;;;2.27;99.49
53522;BME280;39398;48.382;9.802;2023-01-31T20:07:11;94428.50;;;2.36;99.59
53522;BME280;39398;48.382;9.802;2023-01-31T20:12:14;94431.41;;;2.33;98.74
53522;BME280;39398;48.382;9.802;2023-01-31T20:17:16;94427.69;;;2.36;98.72
53522;BME280;39398;48.382;9.802;2023-01-31T20:22:17;94424.47;;;2.22;99.62
53522;BME280;39398;48.382;9.802;2023-01-31T20:27:20;94429.72;;;2.32;99.52
53522;BME280;39398;48.382;9.802;2023-01-31T20:32:22;94417.31;;;2.15;100.00
53522;BME280;39398;48.382;9.802;2023-01-31T20:37:23;94421.94;;;2.11;100.00
53522;BME280;39398;48.382;9.802;2023-01-31T20:42:26;94417.09;;;2.27;100.00
53522;BME280;39398;48.382;9.802;2023-01-31T20:47:31;94415.44;;;2.26;100.00
53522;BME280;39398;48.382;9.802;2023-01-31T20:52:33;94412.84;;;2.05;100.00
53522;BME280;39398;48.382;9.802;2023-01-31T20:57:36;94418.28;;;2.23;100.00
53522;BME280;39398;48.382;9.802;2023-01-31T21:02:38;94413.47;;;2.19;100.00
53522;BME280;39398;48.382;9.802;2023-01-31T21:07:39;94421.56;;;2.16;100.00
53522;BME280;39398;48.382;9.802;2023-01-31T21:12:42;94422.06;;;2.30;100.00
53522;BME280;39398;48.382;9.802;2023-01-31T21:17:44;94419.81;;;2.26;100.00
53522;BME280;39398;48.382;9.802;2023-01-31T21:22:45;94443.34;;;2.15;100.00
53522;BME280;39398;48.382;9.802;2023-01-31T21:27:49;94439.78;;;1.74;100.00
53522;BME280;39398;48.382;9.802;2023-01-31T21:32:50;94439.28;;;2.22;100.00
53522;BME280;39398;48.382;9.802;2023-01-31T21:37:52;94426.13;;;2.02;100.00
53522;BME280;39398;48.382;9.802;2023-01-31T21:42:55;94410.81;;;2.09;100.00
53522;BME280;39398;48.382;9.802;2023-01-31T21:47:57;94410.56;;;2.33;100.00
53522;BME280;39398;48.382;9.802;2023-01-31T21:52:58;94394.75;;;2.04;100.00
53522;BME280;39398;48.382;9.802;2023-01-31T21:58:01;94375.31;;;2.08;100.00
53522;BME280;39398;48.382;9.802;2023-01-31T22:03:03;94369.84;;;2.11;100.00
53522;BME280;39398;48.382;9.802;2023-01-31T22:08:04;94367.72;;;2.26;100.00
53522;BME280;39398;48.382;9.802;2023-01-31T22:13:07;94357.41;;;2.15;100.00
53522;BME280;39398;48.382;9.802;2023-01-31T22:18:09;94359.34;;;2.22;100.00
53522;BME280;39398;48.382;9.802;2023-01-31T22:23:10;94364.50;;;2.13;100.00
53522;BME280;39398;48.382;9.802;2023-01-31T22:28:13;94372.47;;;1.90;100.00
53522;BME280;39398;48.382;9.802;2023-01-31T22:33:15;94370.84;;;2.20;100.00
53522;BME280;39398;48.382;9.802;2023-01-31T22:38:17;94378.09;;;2.16;100.00
53522;BME280;39398;48.382;9.802;2023-01-31T22:43:20;94391.00;;;2.48;100.00
53522;BME280;39398;48.382;9.802;2023-01-31T22:48:23;94385.78;;;2.48;100.00
53522;BME280;39398;48.382;9.802;2023-01-31T22:53:27;94386.00;;;2.36;100.00
53522;BME280;39398;48.382;9.802;2023-01-31T22:58:30;94394.59;;;2.57;100.00
53522;BME280;39398;48.382;9.802;2023-01-31T23:03:32;94385.25;;;2.54;100.00
53522;BME280;39398;48.382;9.802;2023-01-31T23:08:33;94384.34;;;2.65;100.00
53522;BME280;39398;48.382;9.802;2023-01-31T23:13:37;94385.66;;;2.50;100.00
53522;BME280;39398;48.382;9.802;2023-01-31T23:18:39;94382.38;;;2.58;100.00
53522;BME280;39398;48.382;9.802;2023-01-31T23:23:41;94386.81;;;2.67;100.00
53522;BME280;39398;48.382;9.802;2023-01-31T23:28:44;94384.66;;;2.72;100.00
53522;BME280;39398;48.382;9.802;2023-01-31T23:33:45;94365.88;;;2.88;99.18
53522;BME280;39398;48.382;9.802;2023-01-31T23:38:47;94374.78;;;2.85;100.00
53522;BME280;39398;48.382;9.802;2023-01-31T23:43:50;94379.97;;;2.75;100.00
53522;BME280;39398;48.382;9.802;2023-01-31T23:48:52;94365.88;;;2.78;100.00
53522;BME280;39398;48.382;9.802;2023-01-31T23:53:53;94361.34;;;2.90;99.96
53522;BME280;39398;48.382;9.802;2023-01-31T23:58:56;94351.31;;;2.75;99.60
